sensor_id;sensor_type;location;lat;lon;timestamp;pressure;altitude;pressure_sealevel;temperature;humidity
13800;BME280;6971;50.028;9.258;2024-01-15T00:01:47;98223.34;;;-4.66;100.00
13800;BME280;6971;50.028;9.258;2024-01-15T00:06:49;98231.09;;;-4.73;100.00
13800;BME280;6971;50.028;9.258;2024-01-15T00:11:49;98216.53;;;-4.72;100.00
13800;BME280;6971;50.028;9.258;2024-01-15T00:16:50;98216.63;;;-4.77;100.00
13800;BME280;6971;50.028;9.258;2024-01-15T00:21:51;98199.47;;;-4.79;100.00
13800;BME280;6971;50.028;9.258;2024-01-15T00:26:51;98199.53;;;-4.81;100.00
13800;BME280;6971;50.028;9.258;2024-01-15T00:31:53;98188.41;;;-4.85;100.00
13800;BME280;6971;50.028;9.258;2024-01-15T00:36:54;98191.75;;;-4.78;100.00
13800;BME280;6971;50.028;9.258;2024-01-15T00:41:54;98184.88;;;-4.74;100.00
13800;BME280;6971;50.028;9.258;2024-01-15T00:46:54;98176.25;;;-4.70;100.00
13800;BME280;6971;50.028;9.258;2024-01-15T00:51:55;98176.13;;;-4.61;100.00
13800;BME280;6971;50.028;9.258;2024-01-15T00:56:55;98167.50;;;-4.56;100.00
13800;BME280;6971;50.028;9.258;2024-01-15T01:01:55;98164.06;;;-4.55;100.00
13800;BME280;6971;50.028;9.258;2024-01-15T01:06:56;98171.91;;;-4.65;100.00
13800;BME280;6971;50.028;9.258;2024-01-15T01:11:56;98160.97;;;-4.82;100.00
13800;BME280;6971;50.028;9.258;2024-01-15T01:16:57;98168.63;;;-4.79;100.00
13800;BME280;6971;50.028;9.258;2024-01-15T01:21:57;98152.34;;;-4.78;100.00
13800;BME280;6971;50.028;9.258;2024-01-15T01:26:58;98166.00;;;-4.75;100.00
13800;BME280;6971;50.028;9.258;2024-01-15T01:31:58;98159.19;;;-4.76;100.00
13800;BME280;6971;50.028;9.258;2024-01-15T01:36:58;98172.78;;;-4.66;100.00
13800;BME280;6971;50.028;9.258;2024-01-15T01:41:59;98175.41;;;-4.72;100.00
13800;BME280;6971;50.028;9.258;2024-01-15T01:47:00;98176.97;;;-4.60;100.00
13800;BME280;6971;50.028;9.258;2024-01-15T01:52:01;98172.69;;;-4.61;100.00
13800;BME280;6971;50.028;9.258;2024-01-15T01:57:03;98168.53;;;-4.70;100.00
13800;BME280;6971;50.028;9.258;2024-01-15T02:02:05;98166.66;;;-4.57;100.00
13800;BME280;6971;50.028;9.258;2024-01-15T02:07:05;98168.25;;;-4.48;100.00
13800;BME280;6971;50.028;9.258;2024-01-15T02:12:06;98170.78;;;-4.45;100.00
13800;BME280;6971;50.028;9.258;2024-01-15T02:17:06;98150.19;;;-4.43;100.00
13800;BME280;6971;50.028;9.258;2024-01-15T02:22:07;98146.78;;;-4.46;100.00
13800;BME280;6971;50.028;9.258;2024-01-15T02:27:07;98132.22;;;-4.48;100.00
13800;BME280;6971;50.028;9.258;2024-01-15T02:32:08;98144.16;;;-4.42;100.00
13800;BME280;6971;50.028;9.258;2024-01-15T02:37:09;98142.44;;;-4.40;100.00
13800;BME280;6971;50.028;9.258;2024-01-15T02:42:09;98151.91;;;-4.44;100.00
13800;BME280;6971;50.028;9.258;2024-01-15T02:47:09;98139.75;;;-4.33;100.00
13800;BME280;6971;50.028;9.258;2024-01-15T02:52:10;98141.38;;;-4.25;100.00
13800;BME280;6971;50.028;9.258;2024-01-15T02:57:10;98134.47;;;-4.23;100.00
13800;BME280;6971;50.028;9.258;2024-01-15T03:02:11;98137.94;;;-4.26;100.00
13800;BME280;6971;50.028;9.258;2024-01-15T03:07:11;98137.81;;;-4.18;100.00
13800;BME280;6971;50.028;9.258;2024-01-15T03:12:12;98130.97;;;-4.19;100.00
13800;BME280;6971;50.028;9.258;2024-01-15T03:17:12;98134.44;;;-4.20;100.00
13800;BME280;6971;50.028;9.258;2024-01-15T03:22:13;98126.63;;;-4.15;100.00
13800;BME280;6971;50.028;9.258;2024-01-15T03:27:13;98124.84;;;-4.10;100.00
13800;BME280;6971;50.028;9.258;2024-01-15T03:32:14;98129.13;;;-4.11;100.00
13800;BME280;6971;50.028;9.258;2024-01-15T03:37:15;98130.88;;;-4.13;100.00
13800;BME280;6971;50.028;9.258;2024-01-15T03:42:16;98127.63;;;-4.24;100.00
13800;BME280;6971;50.028;9.258;2024-01-15T03:47:16;98120.78;;;-4.25;100.00
13800;BME280;6971;50.028;9.258;2024-01-15T03:52:17;98119.97;;;-4.30;100.00
13800;BME280;6971;50.028;9.258;2024-01-15T03:57:17;98127.75;;;-4.32;100.00
13800;BME280;6971;50.028;9.258;2024-01-15T04:02:17;98125.22;;;-4.35;100.00
13800;BME280;6971;50.028;9.258;2024-01-15T04:07:18;98112.25;;;-4.29;100.00
13800;BME280;6971;50.028;9.258;2024-01-15T04:12:18;98106.91;;;-4.15;100.00
13800;BME280;6971;50.028;9.258;2024-01-15T04:17:18;98108.56;;;-4.12;100.00
13800;BME280;6971;50.028;9.258;2024-01-15T04:22:19;98106.84;;;-4.12;100.00
13800;BME280;6971;50.028;9.258;2024-01-15T04:27:19;98112.84;;;-4.11;100.00
13800;BME280;6971;50.028;9.258;2024-01-15T04:32:19;98113.69;;;-4.09;100.00
13800;BME280;6971;50.028;9.258;2024-01-15T04:37:20;98105.97;;;-4.09;100.00
13800;BME280;6971;50.028;9.258;2024-01-15T04:42:21;98106.75;;;-4.06;100.00
13800;BME280;6971;50.028;9.258;2024-01-15T04:47:21;98102.47;;;-4.05;100.00
13800;BME280;6971;50.028;9.258;2024-01-15T04:52:22;98092.16;;;-4.03;100.00
13800;BME280;6971;50.028;9.258;2024-01-15T04:57:22;98087.88;;;-4.06;100.00
13800;BME280;6971;50.028;9.258;2024-01-15T05:02:22;98092.97;;;-4.01;100.00
13800;BME280;6971;50.028;9.258;2024-01-15T05:07:23;98088.50;;;-3.91;100.00
13800;BME280;6971;50.028;9.258;2024-01-15T05:12:23;98090.25;;;-3.94;100.00
13800;BME280;6971;50.028;9.258;2024-01-15T05:17:23;98097.13;;;-3.92;100.00
13800;BME280;6971;50.028;9.258;2024-01-15T05:22:24;98094.53;;;-3.92;100.00
13800;BME280;6971;50.028;9.258;2024-01-15T05:27:25;98092.00;;;-3.94;100.00
13800;BME280;6971;50.028;9.258;2024-01-15T05:32:25;98081.53;;;-3.85;100.00
13800;BME280;6971;50.028;9.258;2024-01-15T05:37:26;98084.03;;;-3.82;100.00
13800;BME280;6971;50.028;9.258;2024-01-15T05:42:26;98075.38;;;-3.77;100.00
13800;BME280;6971;50.028;9.258;2024-01-15T05:47:26;98068.50;;;-3.75;100.00
13800;BME280;6971;50.028;9.258;2024-01-15T05:52:27;98075.34;;;-3.74;100.00
13800;BME280;6971;50.028;9.258;2024-01-15T05:57:27;98064.16;;;-3.73;100.00
13800;BME280;6971;50.028;9.258;2024-01-15T06:02:28;98065.91;;;-3.75;100.00
13800;BME280;6971;50.028;9.258;2024-01-15T06:07:28;98065.03;;;-3.74;100.00
13800;BME280;6971;50.028;9.258;2024-01-15T06:12:28;98052.00;;;-3.67;100.00
13800;BME280;6971;50.028;9.258;2024-01-15T06:17:29;98057.44;;;-3.81;100.00
13800;BME280;6971;50.028;9.258;2024-01-15T06:22:29;98061.56;;;-3.73;100.00
13800;BME280;6971;50.028;9.258;2024-01-15T06:27:30;98064.94;;;-3.68;100.00
13800;BME280;6971;50.028;9.258;2024-01-15T06:32:30;98053.03;;;-3.75;100.00
13800;BME280;6971;50.028;9.258;2024-01-15T06:37:30;98061.41;;;-3.64;100.00
13800;BME280;6971;50.028;9.258;2024-01-15T06:42:32;98071.72;;;-3.64;100.00
13800;BME280;6971;50.028;9.258;2024-01-15T06:47:33;98061.34;;;-3.59;100.00
13800;BME280;6971;50.028;9.258;2024-01-15T06:52:33;98065.59;;;-3.58;100.00
13800;BME280;6971;50.028;9.258;2024-01-15T06:57:33;98071.94;;;-3.75;100.00
13800;BME280;6971;50.028;9.258;2024-01-15T07:02:34;98072.88;;;-3.79;100.00
13800;BME280;6971;50.028;9.258;2024-01-15T07:07:34;98072.59;;;-3.65;100.00
13800;BME280;6971;50.028;9.258;2024-01-15T07:12:35;98073.47;;;-3.66;100.00
13800;BME280;6971;50.028;9.258;2024-01-15T07:17:35;98075.25;;;-3.68;100.00
13800;BME280;6971;50.028;9.258;2024-01-15T07:22:39;98067.34;;;-3.59;100.00
13800;BME280;6971;50.028;9.258;2024-01-15T07:27:39;98076.78;;;-3.58;100.00
13800;BME280;6971;50.028;9.258;2024-01-15T07:32:40;98082.91;;;-3.65;100.00
13800;BME280;6971;50.028;9.258;2024-01-15T07:37:41;98079.41;;;-3.62;100.00
13800;BME280;6971;50.028;9.258;2024-01-15T07:42:41;98089.69;;;-3.61;100.00
13800;BME280;6971;50.028;9.258;2024-01-15T07:47:43;98091.47;;;-3.63;100.00
13800;BME280;6971;50.028;9.258;2024-01-15T07:52:43;98086.41;;;-3.69;100.00
13800;BME280;6971;50.028;9.258;2024-01-15T07:57:43;98092.22;;;-3.58;100.00
13800;BME280;6971;50.028;9.258;2024-01-15T08:02:44;98069.03;;;-3.56;100.00
13800;BME280;6971;50.028;9.258;2024-01-15T08:07:44;98071.78;;;-3.67;100.00
13800;BME280;6971;50.028;9.258;2024-01-15T08:12:45;98062.91;;;-3.50;100.00
13800;BME280;6971;50.028;9.258;2024-01-15T08:17:45;98068.69;;;-3.39;100.00
13800;BME280;6971;50.028;9.258;2024-01-15T08:22:45;98056.69;;;-3.40;100.00
13800;BME280;6971;50.028;9.258;2024-01-15T08:27:47;98065.03;;;-3.27;100.00
13800;BME280;6971;50.028;9.258;2024-01-15T08:32:47;98063.50;;;-3.37;100.00
13800;BME280;6971;50.028;9.258;2024-01-15T08:37:54;98053.94;;;-3.31;100.00
13800;BME280;6971;50.028;9.258;2024-01-15T08:42:54;98057.25;;;-3.25;100.00
13800;BME280;6971;50.028;9.258;2024-01-15T08:47:54;98066.63;;;-3.21;100.00
13800;BME280;6971;50.028;9.258;2024-01-15T08:52:55;98061.50;;;-3.23;100.00
13800;BME280;6971;50.028;9.258;2024-01-15T08:57:55;98059.88;;;-3.29;100.00
13800;BME280;6971;50.028;9.258;2024-01-15T09:03:02;98068.31;;;-3.20;100.00
13800;BME280;6971;50.028;9.258;2024-01-15T09:08:03;98062.22;;;-3.16;100.00
13800;BME280;6971;50.028;9.258;2024-01-15T09:13:03;98070.66;;;-3.08;100.00
13800;BME280;6971;50.028;9.258;2024-01-15T09:18:05;98073.16;;;-3.03;100.00
13800;BME280;6971;50.028;9.258;2024-01-15T09:23:05;98063.75;;;-3.06;100.00
13800;BME280;6971;50.028;9.258;2024-01-15T09:28:05;98067.72;;;-2.91;100.00
13800;BME280;6971;50.028;9.258;2024-01-15T09:33:06;98064.47;;;-2.99;100.00
13800;BME280;6971;50.028;9.258;2024-01-15T09:38:06;98078.84;;;-2.87;100.00
13800;BME280;6971;50.028;9.258;2024-01-15T09:43:07;98066.63;;;-2.79;100.00
13800;BME280;6971;50.028;9.258;2024-01-15T09:48:07;98061.34;;;-2.72;100.00
13800;BME280;6971;50.028;9.258;2024-01-15T09:53:08;98061.25;;;-2.68;100.00
13800;BME280;6971;50.028;9.258;2024-01-15T09:58:09;98068.84;;;-2.62;100.00
13800;BME280;6971;50.028;9.258;2024-01-15T10:03:10;98064.19;;;-2.45;100.00
13800;BME280;6971;50.028;9.258;2024-01-15T10:08:11;98065.75;;;-2.38;100.00
13800;BME280;6971;50.028;9.258;2024-01-15T10:13:12;98060.63;;;-2.41;100.00
13800;BME280;6971;50.028;9.258;2024-01-15T10:18:12;98047.44;;;-2.29;100.00
13800;BME280;6971;50.028;9.258;2024-01-15T10:23:14;98039.22;;;-2.45;100.00
13800;BME280;6971;50.028;9.258;2024-01-15T10:28:14;98035.09;;;-2.16;100.00
13800;BME280;6971;50.028;9.258;2024-01-15T10:33:14;98031.28;;;-2.01;100.00
13800;BME280;6971;50.028;9.258;2024-01-15T10:38:15;98041.03;;;-2.12;100.00
13800;BME280;6971;50.028;9.258;2024-01-15T10:43:18;98040.78;;;-2.01;100.00
13800;BME280;6971;50.028;9.258;2024-01-15T10:48:19;98040.75;;;-2.00;100.00
13800;BME280;6971;50.028;9.258;2024-01-15T10:53:21;98014.03;;;-1.99;100.00
13800;BME280;6971;50.028;9.258;2024-01-15T10:58:24;98014.69;;;-1.90;100.00
13800;BME280;6971;50.028;9.258;2024-01-15T11:03:25;98011.28;;;-1.92;100.00
13800;BME280;6971;50.028;9.258;2024-01-15T11:08:27;98010.44;;;-1.93;100.00
13800;BME280;6971;50.028;9.258;2024-01-15T11:18:35;98006.78;;;-1.86;100.00
13800;BME280;6971;50.028;9.258;2024-01-15T11:23:46;97989.66;;;-1.88;100.00
13800;BME280;6971;50.028;9.258;2024-01-15T11:28:47;97995.84;;;-1.95;100.00
13800;BME280;6971;50.028;9.258;2024-01-15T11:33:49;97996.38;;;-1.82;100.00
13800;BME280;6971;50.028;9.258;2024-01-15T11:38:50;97999.94;;;-1.87;100.00
13800;BME280;6971;50.028;9.258;2024-01-15T11:43:50;97994.75;;;-1.85;100.00
13800;BME280;6971;50.028;9.258;2024-01-15T11:48:55;97982.97;;;-1.64;100.00
13800;BME280;6971;50.028;9.258;2024-01-15T11:54:03;97980.66;;;-1.41;100.00
13800;BME280;6971;50.028;9.258;2024-01-15T11:59:07;97986.81;;;-1.47;100.00
13800;BME280;6971;50.028;9.258;2024-01-15T12:04:08;97976.72;;;-1.55;100.00
13800;BME280;6971;50.028;9.258;2024-01-15T12:09:08;97973.44;;;-1.62;100.00
13800;BME280;6971;50.028;9.258;2024-01-15T12:14:09;97970.91;;;-1.63;100.00
13800;BME280;6971;50.028;9.258;2024-01-15T12:19:09;97967.25;;;-1.56;100.00
13800;BME280;6971;50.028;9.258;2024-01-15T12:24:10;97964.97;;;-1.67;100.00
13800;BME280;6971;50.028;9.258;2024-01-15T12:29:11;97962.66;;;-1.78;100.00
13800;BME280;6971;50.028;9.258;2024-01-15T12:34:11;97951.47;;;-1.77;100.00
13800;BME280;6971;50.028;9.258;2024-01-15T12:39:12;97973.09;;;-1.81;100.00
13800;BME280;6971;50.028;9.258;2024-01-15T12:44:13;97964.47;;;-1.80;100.00
13800;BME280;6971;50.028;9.258;2024-01-15T12:49:13;97957.34;;;-1.72;100.00
13800;BME280;6971;50.028;9.258;2024-01-15T12:54:14;97956.63;;;-1.77;100.00
13800;BME280;6971;50.028;9.258;2024-01-15T12:59:14;97954.91;;;-1.78;100.00
13800;BME280;6971;50.028;9.258;2024-01-15T13:04:21;97950.91;;;-1.88;100.00
13800;BME280;6971;50.028;9.258;2024-01-15T13:09:22;97943.22;;;-1.91;100.00
13800;BME280;6971;50.028;9.258;2024-01-15T13:14:22;97945.75;;;-1.88;100.00
13800;BME280;6971;50.028;9.258;2024-01-15T13:19:23;97947.38;;;-1.86;100.00
13800;BME280;6971;50.028;9.258;2024-01-15T13:24:23;97945.63;;;-1.84;100.00
13800;BME280;6971;50.028;9.258;2024-01-15T13:29:23;97933.53;;;-1.83;100.00
13800;BME280;6971;50.028;9.258;2024-01-15T13:34:24;97948.31;;;-1.88;100.00
13800;BME280;6971;50.028;9.258;2024-01-15T13:39:25;97949.81;;;-1.79;100.00
13800;BME280;6971;50.028;9.258;2024-01-15T13:44:25;97954.88;;;-1.76;100.00
13800;BME280;6971;50.028;9.258;2024-01-15T13:49:25;97960.00;;;-1.75;100.00
13800;BME280;6971;50.028;9.258;2024-01-15T13:54:26;97961.63;;;-1.71;100.00
13800;BME280;6971;50.028;9.258;2024-01-15T13:59:26;97972.66;;;-1.65;100.00
13800;BME280;6971;50.028;9.258;2024-01-15T14:04:27;97979.38;;;-1.58;100.00
13800;BME280;6971;50.028;9.258;2024-01-15T14:09:28;97989.53;;;-1.52;100.00
13800;BME280;6971;50.028;9.258;2024-01-15T14:14:28;97992.78;;;-1.45;100.00
13800;BME280;6971;50.028;9.258;2024-01-15T14:19:28;97996.97;;;-1.41;100.00
13800;BME280;6971;50.028;9.258;2024-01-15T14:24:29;98000.50;;;-1.43;100.00
13800;BME280;6971;50.028;9.258;2024-01-15T14:29:29;98000.50;;;-1.43;100.00
13800;BME280;6971;50.028;9.258;2024-01-15T14:34:29;98007.25;;;-1.38;100.00
13800;BME280;6971;50.028;9.258;2024-01-15T14:39:30;98008.03;;;-1.36;100.00
13800;BME280;6971;50.028;9.258;2024-01-15T14:44:34;98015.72;;;-1.33;100.00
13800;BME280;6971;50.028;9.258;2024-01-15T14:49:35;98020.22;;;-1.39;100.00
13800;BME280;6971;50.028;9.258;2024-01-15T14:54:35;98026.91;;;-1.32;100.00
13800;BME280;6971;50.028;9.258;2024-01-15T14:59:35;98040.66;;;-1.32;100.00
13800;BME280;6971;50.028;9.258;2024-01-15T15:04:36;98053.56;;;-1.30;100.00
13800;BME280;6971;50.028;9.258;2024-01-15T15:09:36;98055.13;;;-1.24;100.00
13800;BME280;6971;50.028;9.258;2024-01-15T15:14:37;98052.81;;;-1.03;100.00
13800;BME280;6971;50.028;9.258;2024-01-15T15:19:38;98060.63;;;-1.05;100.00
13800;BME280;6971;50.028;9.258;2024-01-15T15:24:40;98068.91;;;-0.94;100.00
13800;BME280;6971;50.028;9.258;2024-01-15T15:29:41;98074.88;;;-0.90;100.00
13800;BME280;6971;50.028;9.258;2024-01-15T15:34:41;98077.59;;;-0.96;100.00
13800;BME280;6971;50.028;9.258;2024-01-15T15:39:42;98079.78;;;-1.12;100.00
13800;BME280;6971;50.028;9.258;2024-01-15T15:44:42;98090.13;;;-1.12;100.00
13800;BME280;6971;50.028;9.258;2024-01-15T15:49:46;98089.97;;;-1.06;100.00
13800;BME280;6971;50.028;9.258;2024-01-15T15:54:47;98097.53;;;-1.00;100.00
13800;BME280;6971;50.028;9.258;2024-01-15T15:59:47;98102.09;;;-1.08;100.00
13800;BME280;6971;50.028;9.258;2024-01-15T16:04:47;98109.97;;;-1.13;100.00
13800;BME280;6971;50.028;9.258;2024-01-15T16:09:48;98117.59;;;-1.08;100.00
13800;BME280;6971;50.028;9.258;2024-01-15T16:14:48;98130.47;;;-1.05;100.00
13800;BME280;6971;50.028;9.258;2024-01-15T16:19:48;98138.97;;;-1.01;100.00
13800;BME280;6971;50.028;9.258;2024-01-15T16:24:49;98133.13;;;-1.08;100.00
13800;BME280;6971;50.028;9.258;2024-01-15T16:29:49;98134.72;;;-1.04;100.00
13800;BME280;6971;50.028;9.258;2024-01-15T16:34:49;98135.63;;;-1.05;100.00
13800;BME280;6971;50.028;9.258;2024-01-15T16:39:50;98148.59;;;-1.07;100.00
13800;BME280;6971;50.028;9.258;2024-01-15T16:44:50;98166.75;;;-1.08;100.00
13800;BME280;6971;50.028;9.258;2024-01-15T16:49:50;98175.31;;;-1.06;100.00
13800;BME280;6971;50.028;9.258;2024-01-15T16:54:51;98190.63;;;-0.98;100.00
13800;BME280;6971;50.028;9.258;2024-01-15T16:59:51;98201.72;;;-0.95;100.00
13800;BME280;6971;50.028;9.258;2024-01-15T17:04:51;98198.16;;;-0.90;100.00
13800;BME280;6971;50.028;9.258;2024-01-15T17:09:52;98195.50;;;-0.87;100.00
13800;BME280;6971;50.028;9.258;2024-01-15T17:14:52;98207.50;;;-0.85;100.00
13800;BME280;6971;50.028;9.258;2024-01-15T17:19:53;98213.47;;;-0.83;100.00
13800;BME280;6971;50.028;9.258;2024-01-15T17:24:55;98216.84;;;-0.79;100.00
13800;BME280;6971;50.028;9.258;2024-01-15T17:29:55;98218.53;;;-0.78;100.00
13800;BME280;6971;50.028;9.258;2024-01-15T17:34:56;98237.59;;;-0.81;100.00
13800;BME280;6971;50.028;9.258;2024-01-15T17:39:56;98234.81;;;-0.74;100.00
13800;BME280;6971;50.028;9.258;2024-01-15T17:44:57;98245.31;;;-0.79;100.00
13800;BME280;6971;50.028;9.258;2024-01-15T17:49:57;98246.34;;;-0.86;100.00
13800;BME280;6971;50.028;9.258;2024-01-15T17:54:57;98248.16;;;-0.88;100.00
13800;BME280;6971;50.028;9.258;2024-01-15T17:59:58;98263.75;;;-0.92;100.00
13800;BME280;6971;50.028;9.258;2024-01-15T18:04:58;98263.56;;;-0.85;100.00
13800;BME280;6971;50.028;9.258;2024-01-15T18:09:58;98274.03;;;-0.88;100.00
13800;BME280;6971;50.028;9.258;2024-01-15T18:14:59;98265.41;;;-0.89;100.00
13800;BME280;6971;50.028;9.258;2024-01-15T18:20:01;98276.63;;;-0.90;100.00
13800;BME280;6971;50.028;9.258;2024-01-15T18:25:02;98278.44;;;-0.94;100.00
13800;BME280;6971;50.028;9.258;2024-01-15T18:30:03;98281.78;;;-0.88;100.00
13800;BME280;6971;50.028;9.258;2024-01-15T18:35:03;98291.19;;;-0.86;100.00
13800;BME280;6971;50.028;9.258;2024-01-15T18:40:05;98293.84;;;-0.89;100.00
13800;BME280;6971;50.028;9.258;2024-01-15T18:45:06;98311.84;;;-0.84;100.00
13800;BME280;6971;50.028;9.258;2024-01-15T18:50:07;98309.31;;;-0.86;100.00
13800;BME280;6971;50.028;9.258;2024-01-15T18:55:07;98320.69;;;-0.93;100.00
13800;BME280;6971;50.028;9.258;2024-01-15T19:00:13;98323.06;;;-0.85;100.00
13800;BME280;6971;50.028;9.258;2024-01-15T19:05:14;98324.91;;;-0.89;100.00
13800;BME280;6971;50.028;9.258;2024-01-15T19:10:14;98331.72;;;-0.86;100.00
13800;BME280;6971;50.028;9.258;2024-01-15T19:15:15;98333.53;;;-0.88;100.00
13800;BME280;6971;50.028;9.258;2024-01-15T19:20:15;98333.53;;;-0.88;100.00
13800;BME280;6971;50.028;9.258;2024-01-15T19:25:15;98356.81;;;-0.88;100.00
13800;BME280;6971;50.028;9.258;2024-01-15T19:30:16;98356.84;;;-0.90;100.00
13800;BME280;6971;50.028;9.258;2024-01-15T19:35:17;98372.34;;;-0.90;100.00
13800;BME280;6971;50.028;9.258;2024-01-15T19:40:17;98374.00;;;-0.86;100.00
13800;BME280;6971;50.028;9.258;2024-01-15T19:45:18;98392.38;;;-0.98;100.00
13800;BME280;6971;50.028;9.258;2024-01-15T19:50:18;98397.34;;;-0.89;100.00
13800;BME280;6971;50.028;9.258;2024-01-15T19:55:19;98396.56;;;-0.93;100.00
13800;BME280;6971;50.028;9.258;2024-01-15T20:00:20;98414.72;;;-0.94;100.00
13800;BME280;6971;50.028;9.258;2024-01-15T20:05:20;98418.34;;;-1.03;100.00
13800;BME280;6971;50.028;9.258;2024-01-15T20:10:20;98419.25;;;-1.06;100.00
13800;BME280;6971;50.028;9.258;2024-01-15T20:15:21;98418.34;;;-1.03;100.00
13800;BME280;6971;50.028;9.258;2024-01-15T20:20:21;98423.47;;;-1.01;100.00
13800;BME280;6971;50.028;9.258;2024-01-15T20:25:23;98429.59;;;-1.06;100.00
13800;BME280;6971;50.028;9.258;2024-01-15T20:30:24;98440.13;;;-1.13;100.00
13800;BME280;6971;50.028;9.258;2024-01-15T20:35:24;98439.25;;;-1.12;100.00
13800;BME280;6971;50.028;9.258;2024-01-15T20:40:25;98437.72;;;-1.21;100.00
13800;BME280;6971;50.028;9.258;2024-01-15T20:45:25;98445.53;;;-1.24;100.00
13800;BME280;6971;50.028;9.258;2024-01-15T20:50:27;98454.09;;;-1.22;100.00
13800;BME280;6971;50.028;9.258;2024-01-15T20:55:27;98448.88;;;-1.19;100.00
13800;BME280;6971;50.028;9.258;2024-01-15T21:00:28;98449.00;;;-1.24;100.00
13800;BME280;6971;50.028;9.258;2024-01-15T21:05:28;98463.81;;;-1.32;100.00
13800;BME280;6971;50.028;9.258;2024-01-15T21:10:29;98468.03;;;-1.28;100.00
13800;BME280;6971;50.028;9.258;2024-01-15T21:15:30;98466.13;;;-1.20;100.00
13800;BME280;6971;50.028;9.258;2024-01-15T21:20:30;98474.00;;;-1.26;100.00
13800;BME280;6971;50.028;9.258;2024-01-15T21:25:31;98472.41;;;-1.32;100.00
13800;BME280;6971;50.028;9.258;2024-01-15T21:30:31;98482.75;;;-1.32;100.00
13800;BME280;6971;50.028;9.258;2024-01-15T21:35:35;98479.22;;;-1.29;100.00
13800;BME280;6971;50.028;9.258;2024-01-15T21:40:35;98495.59;;;-1.27;100.00
13800;BME280;6971;50.028;9.258;2024-01-15T21:45:35;98499.91;;;-1.27;100.00
13800;BME280;6971;50.028;9.258;2024-01-15T21:50:37;98504.22;;;-1.28;100.00
13800;BME280;6971;50.028;9.258;2024-01-15T21:55:38;98501.69;;;-1.29;100.00
13800;BME280;6971;50.028;9.258;2024-01-15T22:00:38;98510.34;;;-1.32;100.00
13800;BME280;6971;50.028;9.258;2024-01-15T22:05:39;98519.84;;;-1.34;100.00
13800;BME280;6971;50.028;9.258;2024-01-15T22:10:41;98525.13;;;-1.39;100.00
13800;BME280;6971;50.028;9.258;2024-01-15T22:15:41;98545.78;;;-1.37;100.00
13800;BME280;6971;50.028;9.258;2024-01-15T22:20:42;98551.84;;;-1.40;100.00
13800;BME280;6971;50.028;9.258;2024-01-15T22:25:42;98552.72;;;-1.41;100.00
13800;BME280;6971;50.028;9.258;2024-01-15T22:30:43;98553.66;;;-1.45;100.00
13800;BME280;6971;50.028;9.258;2024-01-15T22:35:43;98553.75;;;-1.48;100.00
13800;BME280;6971;50.028;9.258;2024-01-15T22:40:43;98567.53;;;-1.49;100.00
13800;BME280;6971;50.028;9.258;2024-01-15T22:45:44;98563.22;;;-1.49;100.00
13800;BME280;6971;50.028;9.258;2024-01-15T22:50:44;98567.59;;;-1.51;100.00
13800;BME280;6971;50.028;9.258;2024-01-15T22:55:44;98578.84;;;-1.55;100.00
13800;BME280;6971;50.028;9.258;2024-01-15T23:00:45;98579.69;;;-1.54;100.00
13800;BME280;6971;50.028;9.258;2024-01-15T23:05:46;98584.97;;;-1.59;100.00
13800;BME280;6971;50.028;9.258;2024-01-15T23:10:46;98599.59;;;-1.60;100.00
13800;BME280;6971;50.028;9.258;2024-01-15T23:15:47;98603.91;;;-1.60;100.00
13800;BME280;6971;50.028;9.258;2024-01-15T23:20:47;98605.72;;;-1.65;100.00
13800;BME280;6971;50.028;9.258;2024-01-15T23:25:47;98612.56;;;-1.63;100.00
13800;BME280;6971;50.028;9.258;2024-01-15T23:30:48;98609.97;;;-1.63;100.00
13800;BME280;6971;50.028;9.258;2024-01-15T23:35:48;98609.97;;;-1.61;100.00
13800;BME280;6971;50.028;9.258;2024-01-15T23:40:49;98615.16;;;-1.64;100.00
13800;BME280;6971;50.028;9.258;2024-01-15T23:45:49;98622.09;;;-1.66;100.00
13800;BME280;6971;50.028;9.258;2024-01-15T23:50:50;98625.56;;;-1.67;100.00
13800;BME280;6971;50.028;9.258;2024-01-15T23:55:50;98622.91;;;-1.63;100.00
